Greendale, Massachusetts
Current Conditions -  °F | °C
As of 3:54 AM on Wednesday 22 Oct 2014 (Local Time) from KORH Reporting Station
Moderate Fog Moderate Fog  
Wind Chill: 41°   Ceiling: 200
Heat Index: 47°   Visibility: 0.25mi
Dew Point: 46°   Wind: 13mph
Humidity: 97%   Direction: 20°NNE
Pressure: 29.97"   Gusts: NA
Location:  42.3148°N, 71.7961°W
Report Text: KORH 220754Z AUTO 02011KT 1/4SM R11/3000V4000FT FG VV002 08/08 A2997 RMK AO2 SLP152 T00830078
Loading
Personal Weather Stations






























Interactive Weather Map
Tropical Storm Tracking
New forecast layout! Learn more

10-Day Weather Forecast

Advertisements
Track Severe Weather on mobile